createdAt,value
2023-05-19T00:00:15.572Z,9.92
2023-05-19T00:02:45.666Z,9.99
2023-05-19T00:05:18.741Z,9.98
2023-05-19T00:07:47.772Z,10.02
2023-05-19T00:10:20.032Z,9.93
2023-05-19T00:12:49.337Z,9.90
2023-05-19T00:15:18.897Z,9.93
2023-05-19T00:17:47.833Z,9.99
2023-05-19T00:20:16.829Z,10.04
2023-05-19T00:22:45.459Z,10.06
2023-05-19T00:25:14.578Z,10.06
2023-05-19T00:27:45.054Z,10.05
2023-05-19T00:30:15.245Z,10.03
2023-05-19T00:32:44.441Z,10.06
2023-05-19T00:35:13.688Z,10.00
2023-05-19T00:37:42.277Z,9.98
2023-05-19T00:40:12.038Z,9.87
2023-05-19T00:42:41.586Z,9.90
2023-05-19T00:45:12.296Z,9.97
2023-05-19T00:47:41.320Z,9.94
2023-05-19T00:50:11.108Z,9.90
2023-05-19T00:52:39.705Z,9.80
2023-05-19T00:55:09.978Z,9.82
2023-05-19T00:57:39.949Z,9.73
2023-05-19T01:00:10.137Z,9.83
2023-05-19T01:02:40.959Z,9.85
2023-05-19T01:05:10.966Z,9.89
2023-05-19T01:07:39.650Z,9.91
2023-05-19T01:10:09.037Z,9.93
2023-05-19T01:12:38.321Z,9.87
2023-05-19T01:15:10.064Z,10.00
2023-05-19T01:17:45.948Z,10.12
2023-05-19T01:20:19.213Z,10.11
2023-05-19T01:23:25.490Z,10.12
2023-05-19T01:26:13.913Z,10.19
2023-05-19T01:29:14.165Z,10.10
2023-05-19T01:31:47.319Z,9.99
2023-05-19T01:34:18.197Z,10.02
2023-05-19T01:36:49.978Z,10.06
2023-05-19T01:39:19.119Z,10.00
2023-05-19T01:41:48.335Z,10.08
2023-05-19T01:44:17.673Z,9.97
2023-05-19T01:46:47.803Z,10.07
2023-05-19T01:49:16.738Z,10.12
2023-05-19T01:51:47.030Z,10.19
2023-05-19T01:54:16.012Z,9.92
2023-05-19T01:56:50.972Z,9.93
2023-05-19T01:59:32.976Z,10.04
2023-05-19T02:02:06.319Z,9.99
2023-05-19T02:04:40.268Z,10.03
2023-05-19T02:07:15.776Z,10.12
2023-05-19T02:09:53.740Z,9.89
2023-05-19T02:12:27.488Z,10.02
2023-05-19T02:15:03.401Z,10.07
2023-05-19T02:17:36.312Z,10.06
2023-05-19T02:20:06.081Z,10.07
2023-05-19T02:22:34.809Z,9.95
2023-05-19T02:25:03.787Z,10.04
2023-05-19T02:27:35.160Z,10.01
2023-05-19T02:30:05.002Z,9.97
2023-05-19T02:32:35.733Z,9.90
2023-05-19T02:35:05.042Z,10.01
2023-05-19T02:37:33.567Z,10.02
2023-05-19T02:40:02.733Z,9.96
2023-05-19T02:42:32.127Z,9.95
2023-05-19T02:45:01.856Z,10.02
2023-05-19T02:47:31.031Z,9.99
2023-05-19T02:50:01.450Z,10.07
2023-05-19T02:52:31.737Z,10.07
2023-05-19T02:55:00.886Z,10.03
2023-05-19T02:57:31.868Z,9.90
2023-05-19T03:00:01.144Z,9.87
2023-05-19T03:02:30.247Z,9.82
2023-05-19T03:05:01.711Z,9.72
2023-05-19T03:07:30.356Z,9.77
2023-05-19T03:09:59.215Z,9.90
2023-05-19T03:12:31.741Z,9.89
2023-05-19T03:15:00.935Z,9.93
2023-05-19T03:17:33.952Z,10.01
2023-05-19T03:20:06.209Z,10.11
2023-05-19T03:22:34.961Z,10.10
2023-05-19T03:25:04.725Z,9.42
2023-05-19T03:27:34.644Z,9.46
2023-05-19T03:30:06.336Z,9.40
2023-05-19T03:32:38.052Z,9.68
2023-05-19T03:35:09.584Z,10.06
2023-05-19T03:37:38.326Z,10.15
2023-05-19T03:40:09.071Z,10.38
2023-05-19T03:42:39.877Z,10.35
2023-05-19T03:45:09.762Z,10.33
2023-05-19T03:47:38.711Z,10.33
2023-05-19T03:50:44.713Z,10.47
2023-05-19T03:53:27.814Z,10.38
2023-05-19T03:55:56.863Z,10.25
2023-05-19T03:58:26.912Z,10.28
2023-05-19T04:00:56.136Z,10.08
2023-05-19T04:03:26.276Z,10.21
2023-05-19T04:05:56.839Z,10.44
2023-05-19T04:08:26.213Z,10.02
2023-05-19T04:10:54.718Z,10.07
2023-05-19T04:13:23.789Z,10.08
2023-05-19T04:15:53.925Z,10.01
2023-05-19T04:18:23.137Z,9.92
2023-05-19T04:20:52.249Z,10.02
2023-05-19T04:23:23.109Z,9.83
2023-05-19T04:25:52.268Z,9.97
2023-05-19T04:28:21.668Z,10.02
2023-05-19T04:30:50.757Z,10.19
2023-05-19T04:33:20.225Z,10.22
2023-05-19T04:35:50.407Z,10.22
2023-05-19T04:38:22.273Z,10.18
2023-05-19T04:40:52.142Z,9.98
2023-05-19T04:43:22.386Z,10.18
2023-05-19T04:45:52.543Z,10.33
2023-05-19T04:48:23.392Z,10.23
2023-05-19T04:50:53.297Z,10.30
2023-05-19T04:53:25.745Z,10.32
2023-05-19T04:55:54.717Z,10.12
2023-05-19T04:58:25.911Z,10.36
2023-05-19T05:00:56.589Z,10.58
2023-05-19T05:03:25.434Z,10.64
2023-05-19T05:05:54.621Z,10.33
2023-05-19T05:08:25.010Z,10.36
2023-05-19T05:10:56.428Z,10.21
2023-05-19T05:13:26.519Z,10.35
2023-05-19T05:15:56.446Z,10.54
2023-05-19T05:18:26.395Z,10.58
2023-05-19T05:20:55.880Z,10.34
2023-05-19T05:23:27.967Z,10.46
2023-05-19T05:25:57.112Z,10.40
2023-05-19T05:28:26.098Z,10.52
2023-05-19T05:30:57.475Z,10.58
2023-05-19T05:33:28.027Z,10.48
2023-05-19T05:35:56.996Z,10.23
2023-05-19T05:38:28.785Z,10.76
2023-05-19T05:40:57.471Z,10.75
2023-05-19T05:43:26.643Z,10.61
2023-05-19T05:46:00.388Z,10.97
2023-05-19T05:48:29.958Z,11.13
2023-05-19T05:51:00.159Z,11.17
2023-05-19T05:53:38.838Z,11.44
2023-05-19T05:56:08.737Z,11.34
2023-05-19T05:58:44.709Z,11.54
2023-05-19T06:01:13.878Z,11.50
2023-05-19T06:03:45.107Z,11.56
2023-05-19T06:06:19.256Z,11.64
2023-05-19T06:08:49.892Z,11.77
2023-05-19T06:11:21.226Z,12.14
2023-05-19T06:13:50.010Z,12.32
2023-05-19T06:16:37.506Z,12.08
2023-05-19T06:19:08.021Z,12.02
2023-05-19T06:21:38.441Z,12.07
2023-05-19T06:24:08.965Z,12.37
2023-05-19T06:26:37.888Z,12.42
2023-05-19T06:29:07.088Z,12.21
2023-05-19T06:31:36.440Z,12.22
2023-05-19T06:34:17.741Z,12.31
2023-05-19T06:36:48.818Z,12.26
2023-05-19T06:39:20.426Z,11.98
2023-05-19T06:41:50.840Z,11.84
2023-05-19T06:44:39.889Z,11.81
2023-05-19T06:47:13.259Z,11.73
2023-05-19T06:49:42.036Z,11.86
2023-05-19T06:52:11.141Z,11.62
2023-05-19T06:54:41.585Z,11.81
2023-05-19T06:57:12.972Z,12.02
2023-05-19T06:59:43.621Z,11.76
2023-05-19T07:02:13.710Z,11.92
2023-05-19T07:04:43.120Z,11.85
2023-05-19T07:07:14.260Z,12.07
2023-05-19T07:09:46.013Z,12.16
2023-05-19T07:12:15.491Z,12.17
2023-05-19T07:14:44.455Z,12.26
2023-05-19T07:17:16.221Z,12.29
2023-05-19T07:19:46.671Z,12.30
2023-05-19T07:22:17.335Z,12.17
2023-05-19T07:24:48.158Z,12.16
2023-05-19T07:27:17.820Z,12.17
2023-05-19T07:29:46.823Z,12.08
2023-05-19T07:32:16.402Z,12.17
2023-05-19T07:34:45.083Z,12.22
2023-05-19T07:37:14.420Z,12.30
2023-05-19T07:39:43.429Z,12.33
2023-05-19T07:42:13.785Z,12.30
2023-05-19T07:44:42.613Z,12.23
2023-05-19T07:47:11.666Z,12.43
2023-05-19T07:49:40.206Z,12.53
2023-05-19T07:52:09.177Z,12.59
2023-05-19T07:54:38.874Z,12.69
2023-05-19T07:57:10.481Z,12.69
2023-05-19T07:59:40.920Z,12.33
2023-05-19T08:02:09.990Z,12.47
2023-05-19T08:04:38.679Z,12.55
2023-05-19T08:07:07.783Z,12.44
2023-05-19T08:09:36.784Z,12.65
2023-05-19T08:12:06.192Z,12.69
2023-05-19T08:14:35.216Z,12.43
2023-05-19T08:17:06.354Z,12.40
2023-05-19T08:19:35.140Z,12.57
2023-05-19T08:22:04.398Z,12.20
2023-05-19T08:24:33.977Z,12.09
2023-05-19T08:27:04.933Z,12.13
2023-05-19T08:29:34.339Z,12.16
2023-05-19T08:32:03.724Z,12.27
2023-05-19T08:34:33.767Z,12.37
2023-05-19T08:37:03.231Z,12.36
2023-05-19T08:39:34.280Z,12.27
2023-05-19T08:42:03.410Z,12.55
2023-05-19T08:44:32.843Z,12.65
2023-05-19T08:47:05.184Z,12.70
2023-05-19T08:49:39.181Z,13.02
2023-05-19T08:52:13.774Z,13.21
2023-05-19T08:54:45.173Z,13.35
2023-05-19T08:57:15.216Z,13.45
2023-05-19T08:59:44.982Z,13.55
2023-05-19T09:02:14.695Z,13.55
2023-05-19T09:04:47.866Z,13.66
2023-05-19T09:07:17.063Z,13.61
2023-05-19T09:09:45.996Z,13.54
2023-05-19T09:12:15.634Z,13.93
2023-05-19T09:14:44.749Z,14.14
2023-05-19T09:17:13.747Z,14.21
2023-05-19T09:19:47.339Z,14.00
2023-05-19T09:22:19.299Z,13.99
2023-05-19T09:24:48.892Z,14.29
2023-05-19T09:27:23.720Z,14.25
2023-05-19T09:29:52.815Z,14.24
2023-05-19T09:32:28.849Z,14.18
2023-05-19T09:34:58.961Z,14.24
2023-05-19T09:37:27.864Z,14.41
2023-05-19T09:39:58.359Z,14.21
2023-05-19T09:42:30.220Z,14.02
2023-05-19T09:45:02.589Z,13.78
2023-05-19T09:47:35.582Z,13.81
2023-05-19T09:50:06.687Z,13.44
2023-05-19T09:52:37.388Z,13.64
2023-05-19T09:55:07.387Z,13.75
2023-05-19T09:57:38.329Z,13.54
2023-05-19T10:00:15.724Z,13.59
2023-05-19T10:02:45.790Z,13.67
2023-05-19T10:05:20.082Z,13.86
2023-05-19T10:07:51.606Z,13.85
2023-05-19T10:10:21.366Z,13.52
2023-05-19T10:12:50.993Z,13.71
2023-05-19T10:15:22.210Z,13.85
2023-05-19T10:17:53.022Z,13.82
2023-05-19T10:20:24.437Z,13.88
2023-05-19T10:22:53.332Z,14.41
2023-05-19T10:25:22.398Z,14.80
2023-05-19T10:27:54.848Z,15.42
2023-05-19T10:30:27.874Z,15.64
2023-05-19T10:32:58.270Z,15.90
2023-05-19T10:35:35.047Z,16.59
2023-05-19T10:38:14.517Z,16.79
2023-05-19T10:40:51.266Z,16.90
2023-05-19T10:43:27.143Z,17.17
2023-05-19T10:45:56.790Z,17.17
2023-05-19T10:48:25.976Z,17.13
2023-05-19T10:50:56.420Z,16.83
2023-05-19T10:53:32.839Z,16.97
2023-05-19T10:56:04.397Z,16.18
2023-05-19T10:58:52.301Z,16.66
2023-05-19T11:01:24.969Z,16.71
2023-05-19T11:03:57.312Z,16.68
2023-05-19T11:06:29.525Z,16.62
2023-05-19T11:09:02.083Z,16.53
2023-05-19T11:11:46.214Z,16.90
2023-05-19T11:14:16.808Z,16.68
2023-05-19T11:16:48.429Z,17.10
2023-05-19T11:19:21.831Z,17.34
2023-05-19T11:21:55.065Z,17.10
2023-05-19T11:24:37.721Z,16.82
2023-05-19T11:27:31.836Z,16.71
2023-05-19T11:30:02.115Z,16.48
2023-05-19T11:32:31.611Z,16.66
2023-05-19T11:35:00.982Z,16.73
2023-05-19T11:37:34.728Z,16.88
2023-05-19T11:40:06.191Z,17.10
2023-05-19T11:42:36.230Z,17.37
2023-05-19T11:45:06.576Z,17.04
2023-05-19T11:47:47.054Z,17.13
2023-05-19T11:50:25.183Z,17.16
2023-05-19T11:52:55.485Z,17.43
2023-05-19T11:55:25.430Z,17.49
2023-05-19T12:00:34.398Z,17.54
2023-05-19T12:03:06.072Z,17.62
2023-05-19T12:05:41.851Z,17.97
2023-05-19T12:08:14.199Z,18.05
2023-05-19T12:10:42.888Z,17.66
2023-05-19T12:13:11.939Z,17.47
2023-05-19T12:15:41.749Z,17.40
2023-05-19T12:18:10.891Z,17.45
2023-05-19T12:20:40.067Z,17.46
2023-05-19T12:23:09.167Z,17.59
2023-05-19T12:25:39.561Z,17.43
2023-05-19T12:28:08.661Z,17.67
2023-05-19T12:30:38.017Z,17.58
2023-05-19T12:33:07.342Z,17.23
2023-05-19T12:35:39.073Z,17.25
2023-05-19T12:38:08.737Z,17.32
2023-05-19T12:40:39.616Z,17.15
2023-05-19T12:43:09.831Z,17.06
2023-05-19T12:45:39.017Z,16.95
2023-05-19T12:48:13.092Z,16.74
2023-05-19T12:50:42.365Z,16.40
2023-05-19T12:53:13.039Z,15.93
2023-05-19T12:55:44.110Z,16.11
2023-05-19T12:58:13.957Z,16.34
2023-05-19T13:00:47.500Z,16.53
2023-05-19T13:03:18.592Z,15.94
2023-05-19T13:05:49.956Z,16.04
2023-05-19T13:08:20.408Z,16.00
2023-05-19T13:10:50.969Z,16.27
2023-05-19T13:13:20.197Z,16.41
2023-05-19T13:15:49.872Z,16.58
2023-05-19T13:18:19.332Z,16.36
2023-05-19T13:20:50.284Z,16.07
2023-05-19T13:23:19.440Z,16.15
2023-05-19T13:25:48.161Z,16.16
2023-05-19T13:28:18.589Z,15.99
2023-05-19T13:30:48.345Z,16.03
2023-05-19T13:33:17.617Z,16.04
2023-05-19T13:35:46.759Z,15.82
2023-05-19T13:38:15.738Z,15.72
2023-05-19T13:40:44.466Z,15.77
2023-05-19T13:43:13.632Z,15.87
2023-05-19T13:45:45.822Z,15.90
2023-05-19T13:48:15.279Z,15.87
2023-05-19T13:50:44.307Z,15.95
2023-05-19T13:53:13.332Z,15.91
2023-05-19T13:55:42.014Z,15.73
2023-05-19T13:58:12.624Z,15.54
2023-05-19T14:00:42.671Z,15.42
2023-05-19T14:03:13.583Z,15.09
2023-05-19T14:05:42.663Z,15.29
2023-05-19T14:08:12.394Z,15.35
2023-05-19T14:10:42.301Z,15.51
2023-05-19T14:13:31.637Z,15.56
2023-05-19T14:16:01.404Z,15.57
2023-05-19T14:18:32.559Z,15.64
2023-05-19T14:21:01.595Z,15.38
2023-05-19T14:23:30.680Z,15.34
2023-05-19T14:25:59.613Z,15.21
2023-05-19T14:28:28.934Z,15.10
2023-05-19T14:31:00.154Z,14.96
2023-05-19T14:33:32.759Z,14.88
2023-05-19T14:36:06.462Z,14.80
2023-05-19T14:38:35.545Z,14.59
2023-05-19T14:41:04.532Z,14.74
2023-05-19T14:43:33.290Z,14.83
2023-05-19T14:46:02.377Z,14.76
2023-05-19T14:48:31.360Z,14.86
2023-05-19T14:51:01.098Z,14.98
2023-05-19T14:53:31.638Z,15.15
2023-05-19T14:56:00.554Z,15.22
2023-05-19T14:58:29.509Z,15.50
2023-05-19T15:01:00.255Z,15.61
2023-05-19T15:03:29.307Z,15.58
2023-05-19T15:05:58.286Z,15.29
2023-05-19T15:08:27.431Z,15.05
2023-05-19T15:10:57.539Z,15.00
2023-05-19T15:13:26.594Z,14.95
2023-05-19T15:16:08.304Z,14.84
2023-05-19T15:18:44.408Z,14.64
2023-05-19T15:21:13.927Z,14.60
2023-05-19T15:23:42.922Z,14.43
2023-05-19T15:26:13.230Z,14.39
2023-05-19T15:28:41.995Z,14.25
2023-05-19T15:31:11.004Z,14.20
2023-05-19T15:33:40.119Z,14.29
2023-05-19T15:36:09.158Z,14.20
2023-05-19T15:38:38.205Z,13.99
2023-05-19T15:41:09.040Z,14.19
2023-05-19T15:43:39.171Z,14.03
2023-05-19T15:46:08.300Z,14.08
2023-05-19T15:48:37.441Z,14.18
2023-05-19T15:51:06.472Z,14.34
2023-05-19T15:53:35.524Z,14.37
2023-05-19T15:56:04.904Z,14.45
2023-05-19T15:58:33.682Z,14.50
2023-05-19T16:01:04.786Z,14.49
2023-05-19T16:03:34.195Z,14.57
2023-05-19T16:06:03.341Z,14.43
2023-05-19T16:08:32.740Z,14.46
2023-05-19T16:11:01.635Z,14.50
2023-05-19T16:13:30.857Z,14.46
2023-05-19T16:15:59.927Z,14.48
2023-05-19T16:18:30.539Z,14.50
2023-05-19T16:20:59.644Z,14.24
2023-05-19T16:23:28.769Z,14.22
2023-05-19T16:25:57.726Z,14.25
2023-05-19T16:28:28.072Z,14.22
2023-05-19T16:30:59.295Z,14.32
2023-05-19T16:33:30.257Z,14.36
2023-05-19T16:35:59.966Z,14.41
2023-05-19T16:38:29.122Z,14.31
2023-05-19T16:40:58.125Z,14.44
2023-05-19T16:43:26.958Z,14.39
2023-05-19T16:45:56.119Z,14.32
2023-05-19T16:48:25.339Z,14.13
2023-05-19T16:50:55.936Z,14.24
2023-05-19T16:53:25.164Z,14.16
2023-05-19T16:55:53.798Z,14.16
2023-05-19T16:58:22.710Z,14.21
2023-05-19T17:00:53.092Z,14.26
2023-05-19T17:03:22.123Z,14.37
2023-05-19T17:05:51.189Z,14.37
2023-05-19T17:08:21.593Z,14.33
2023-05-19T17:10:50.263Z,14.32
2023-05-19T17:13:19.390Z,14.28
2023-05-19T17:15:52.561Z,14.27
2023-05-19T17:18:21.584Z,14.14
2023-05-19T17:20:50.714Z,14.03
2023-05-19T17:23:19.708Z,13.98
2023-05-19T17:25:50.497Z,13.89
2023-05-19T17:28:19.570Z,13.80
2023-05-19T17:30:48.564Z,13.88
2023-05-19T17:33:17.661Z,13.88
2023-05-19T17:35:46.685Z,13.86
2023-05-19T17:38:15.760Z,13.92
2023-05-19T17:40:45.369Z,13.91
2023-05-19T17:43:15.820Z,13.89
2023-05-19T17:45:44.894Z,13.79
2023-05-19T17:48:13.990Z,13.72
2023-05-19T17:50:43.003Z,13.74
2023-05-19T17:53:12.116Z,13.65
2023-05-19T17:55:41.426Z,13.67
2023-05-19T17:58:10.953Z,13.69
2023-05-19T18:00:42.047Z,13.64
2023-05-19T18:03:11.579Z,13.59
2023-05-19T18:05:43.362Z,13.60
2023-05-19T18:08:13.667Z,13.54
2023-05-19T18:10:43.770Z,13.57
2023-05-19T18:13:14.142Z,13.62
2023-05-19T18:15:44.315Z,13.70
2023-05-19T18:18:13.637Z,13.65
2023-05-19T18:20:44.921Z,13.62
2023-05-19T18:23:14.881Z,13.69
2023-05-19T18:25:50.690Z,13.67
2023-05-19T18:28:19.770Z,13.61
2023-05-19T18:31:00.220Z,13.64
2023-05-19T18:33:31.062Z,13.50
2023-05-19T18:36:00.605Z,13.50
2023-05-19T18:38:29.641Z,13.50
2023-05-19T18:41:01.405Z,13.47
2023-05-19T18:43:30.264Z,13.42
2023-05-19T18:46:00.817Z,13.37
2023-05-19T18:48:29.835Z,13.33
2023-05-19T18:50:58.827Z,13.37
2023-05-19T18:53:28.958Z,13.44
2023-05-19T18:55:57.720Z,13.41
2023-05-19T18:58:26.714Z,13.45
2023-05-19T19:00:56.382Z,13.47
2023-05-19T19:03:26.912Z,13.54
2023-05-19T19:05:56.432Z,13.50
2023-05-19T19:08:25.632Z,13.42
2023-05-19T19:10:59.302Z,13.44
2023-05-19T19:13:28.322Z,13.52
2023-05-19T19:15:57.341Z,13.54
2023-05-19T19:18:27.883Z,13.55
2023-05-19T19:20:57.894Z,13.48
2023-05-19T19:23:26.975Z,13.54
2023-05-19T19:25:56.566Z,13.51
2023-05-19T19:28:25.559Z,13.48
2023-05-19T19:30:54.669Z,13.43
2023-05-19T19:33:24.780Z,13.40
2023-05-19T19:35:55.744Z,13.43
2023-05-19T19:38:25.184Z,13.39
2023-05-19T19:40:53.767Z,13.41
2023-05-19T19:43:22.873Z,13.38
2023-05-19T19:46:00.745Z,13.38
2023-05-19T19:48:29.901Z,13.33
2023-05-19T19:51:00.301Z,13.39
2023-05-19T19:53:29.044Z,13.49
2023-05-19T19:55:59.483Z,13.47
2023-05-19T19:58:28.877Z,13.53
2023-05-19T20:00:58.881Z,13.58
2023-05-19T20:03:29.564Z,13.51
2023-05-19T20:06:00.178Z,13.52
2023-05-19T20:08:29.136Z,13.50
2023-05-19T20:10:58.169Z,13.47
2023-05-19T20:13:27.118Z,13.46
2023-05-19T20:15:56.112Z,13.48
2023-05-19T20:18:27.298Z,13.51
2023-05-19T20:20:56.489Z,13.55
2023-05-19T20:23:26.890Z,13.56
2023-05-19T20:26:10.839Z,13.52
2023-05-19T20:28:41.369Z,13.52
2023-05-19T20:31:10.475Z,13.54
2023-05-19T20:33:39.600Z,13.36
2023-05-19T20:36:08.656Z,13.38
2023-05-19T20:38:38.979Z,13.38
2023-05-19T20:41:07.681Z,13.40
2023-05-19T20:43:36.515Z,13.27
2023-05-19T20:46:05.623Z,13.32
2023-05-19T20:48:34.653Z,13.35
2023-05-19T20:51:05.177Z,13.33
2023-05-19T20:53:35.068Z,13.31
2023-05-19T20:56:06.944Z,13.29
2023-05-19T20:58:35.509Z,13.33
2023-05-19T21:01:04.568Z,13.35
2023-05-19T21:03:33.647Z,13.29
2023-05-19T21:06:02.578Z,13.29
2023-05-19T21:08:31.603Z,13.34
2023-05-19T21:11:00.725Z,13.35
2023-05-19T21:13:31.877Z,13.41
2023-05-19T21:16:02.184Z,13.36
2023-05-19T21:18:31.036Z,13.40
2023-05-19T21:21:03.836Z,13.37
2023-05-19T21:23:32.884Z,13.37
2023-05-19T21:26:01.863Z,13.37
2023-05-19T21:28:32.224Z,13.40
2023-05-19T21:31:01.494Z,13.40
2023-05-19T21:33:31.281Z,13.36
2023-05-19T21:36:00.562Z,13.35
2023-05-19T21:38:29.734Z,13.34
2023-05-19T21:40:58.672Z,13.36
2023-05-19T21:43:27.332Z,13.37
2023-05-19T21:45:57.850Z,13.40
2023-05-19T21:48:26.858Z,13.39
2023-05-19T21:50:56.262Z,13.40
2023-05-19T21:53:25.267Z,13.42
2023-05-19T21:55:53.936Z,13.43
2023-05-19T21:58:22.968Z,13.44
2023-05-19T22:00:55.998Z,13.46
2023-05-19T22:03:26.564Z,13.52
2023-05-19T22:05:56.188Z,13.51
2023-05-19T22:08:26.165Z,13.51
2023-05-19T22:10:54.886Z,13.54
2023-05-19T22:13:23.954Z,13.49
2023-05-19T22:15:52.819Z,13.49
2023-05-19T22:18:22.079Z,13.52
2023-05-19T22:20:52.478Z,13.54
2023-05-19T22:23:21.142Z,13.60
2023-05-19T22:25:49.684Z,13.53
2023-05-19T22:28:18.835Z,13.52
2023-05-19T22:30:47.803Z,13.58
2023-05-19T22:33:16.851Z,13.50
2023-05-19T22:35:46.107Z,13.51
2023-05-19T22:38:16.552Z,13.55
2023-05-19T22:40:45.573Z,13.42
2023-05-19T22:43:14.469Z,13.40
2023-05-19T22:45:43.449Z,13.42
2023-05-19T22:48:12.514Z,13.39
2023-05-19T22:50:41.625Z,13.35
2023-05-19T22:53:10.632Z,13.36
2023-05-19T22:55:40.823Z,13.36
2023-05-19T22:58:09.875Z,13.38
2023-05-19T23:00:38.877Z,13.35
2023-05-19T23:03:07.890Z,13.37
2023-05-19T23:05:38.132Z,13.37
2023-05-19T23:08:07.576Z,13.32
2023-05-19T23:10:36.074Z,13.28
2023-05-19T23:13:06.591Z,13.36
2023-05-19T23:15:35.910Z,13.35
2023-05-19T23:18:07.444Z,13.36
2023-05-19T23:20:37.614Z,13.34
2023-05-19T23:23:06.656Z,13.30
2023-05-19T23:25:35.512Z,13.29
2023-05-19T23:28:10.223Z,13.06
2023-05-19T23:30:39.370Z,13.20
2023-05-19T23:33:08.442Z,13.22
2023-05-19T23:35:37.527Z,13.24
2023-05-19T23:38:06.731Z,13.26
2023-05-19T23:40:35.352Z,13.21
2023-05-19T23:43:06.211Z,13.20
2023-05-19T23:45:35.268Z,13.19
2023-05-19T23:48:04.344Z,13.19
2023-05-19T23:50:33.391Z,13.17
2023-05-19T23:53:02.591Z,13.18
2023-05-19T23:55:31.327Z,13.16
2023-05-19T23:58:00.475Z,13.03
